Time;durP1;ratioP1;P1;durP2;ratioP2;P2;SDS_P1;SDS_P2;PMS_P1;PMS_P2;Temp;Humidity;BMP_temperature;BMP_pressure;BME280_temperature;BME280_humidity;BME280_pressure;Samples;Min_cycle;Max_cycle;Signal;HPM_P1;HPM_P2
2023/02/20 00:00:31;;;;;;;29.45;23.83;;;;;;;;;;5028324;28;20032;-65
2023/02/20 00:02:57;;;;;;;28.90;22.77;;;;;;;;;;5028378;28;20506;-64
2023/02/20 00:05:23;;;;;;;28.65;22.60;;;;;;;;;;5026298;28;20466;-66
2023/02/20 00:07:49;;;;;;;28.83;22.65;;;;;;;;;;5027319;28;20464;-65
2023/02/20 00:10:16;;;;;;;24.42;20.35;;;;;;;;;;5028151;28;20029;-66
2023/02/20 00:12:42;;;;;;;28.50;22.08;;;;;;;;;;5027713;28;20033;-66
2023/02/20 00:15:08;;;;;;;28.67;21.80;;;;;;;;;;5025779;28;20383;-66
2023/02/20 00:17:34;;;;;;;29.60;23.10;;;;;;;;;;5028306;28;20033;-66
2023/02/20 00:20:00;;;;;;;29.73;23.10;;;;;;;;;;5026949;28;20024;-65
2023/02/20 00:22:28;;;;;;;28.95;23.10;;;;;;;;;;5028313;28;20523;-66
2023/02/20 00:24:54;;;;;;;27.45;22.33;;;;;;;;;;5059968;28;20117;-66
2023/02/20 00:27:20;;;;;;;28.23;23.25;;;;;;;;;;5068156;28;20480;-65
2023/02/20 00:29:46;;;;;;;27.40;21.45;;;;;;;;;;5068283;28;20082;-66
2023/02/20 00:32:12;;;;;;;27.60;22.00;;;;;;;;;;5040116;23;20501;-60
2023/02/20 00:34:38;;;;;;;27.17;22.10;;;;;;;;;;5028877;28;20406;-60
2023/02/20 00:37:05;;;;;;;28.55;22.27;;;;;;;;;;5030370;28;20021;-60
2023/02/20 00:39:31;;;;;;;27.25;21.85;;;;;;;;;;5030622;28;20041;-61
2023/02/20 00:41:57;;;;;;;25.15;21.05;;;;;;;;;;5030358;28;20552;-60
2023/02/20 00:44:24;;;;;;;27.08;21.40;;;;;;;;;;5030399;28;20040;-60
2023/02/20 00:46:50;;;;;;;26.17;21.35;;;;;;;;;;5013683;28;20029;-60
2023/02/20 00:49:16;;;;;;;23.83;19.30;;;;;;;;;;5031301;28;20021;-60
2023/02/20 00:51:42;;;;;;;25.55;20.40;;;;;;;;;;5031957;28;20029;-60
2023/02/20 00:54:08;;;;;;;26.83;19.63;;;;;;;;;;5031196;28;20028;-60
2023/02/20 00:56:34;;;;;;;27.52;20.77;;;;;;;;;;5014526;28;20025;-60
2023/02/20 00:59:00;;;;;;;24.77;20.40;;;;;;;;;;5032153;28;20037;-61
2023/02/20 01:01:26;;;;;;;23.42;20.23;;;;;;;;;;5014127;28;20025;-61
2023/02/20 01:03:52;;;;;;;24.88;20.27;;;;;;;;;;5031140;28;20139;-60
2023/02/20 01:06:18;;;;;;;24.80;21.20;;;;;;;;;;5031913;28;20136;-59
2023/02/20 01:08:44;;;;;;;24.65;20.38;;;;;;;;;;5031740;28;20025;-60
2023/02/20 01:11:10;;;;;;;26.85;19.38;;;;;;;;;;5031852;28;20025;-61
2023/02/20 01:13:36;;;;;;;23.30;19.05;;;;;;;;;;5013271;28;20060;-60
2023/02/20 01:16:03;;;;;;;28.15;21.10;;;;;;;;;;5014024;28;20076;-60
2023/02/20 01:18:29;;;;;;;26.70;20.25;;;;;;;;;;5031748;28;20022;-61
2023/02/20 01:20:55;;;;;;;28.35;21.58;;;;;;;;;;5031744;28;20075;-61
2023/02/20 01:23:21;;;;;;;25.42;20.70;;;;;;;;;;5030823;28;20025;-60
2023/02/20 01:25:47;;;;;;;26.92;20.50;;;;;;;;;;5031787;28;20048;-62
2023/02/20 01:28:13;;;;;;;25.67;19.73;;;;;;;;;;5031819;28;20025;-60
2023/02/20 01:30:39;;;;;;;27.38;20.88;;;;;;;;;;5031598;28;20063;-63
2023/02/20 01:33:05;;;;;;;24.60;20.23;;;;;;;;;;5012803;28;20030;-61
2023/02/20 01:35:32;;;;;;;26.35;20.35;;;;;;;;;;5031445;28;20436;-62
2023/02/20 01:37:58;;;;;;;26.95;21.15;;;;;;;;;;5031398;28;20545;-59
2023/02/20 01:40:25;;;;;;;27.80;20.02;;;;;;;;;;5014041;28;20037;-61
2023/02/20 01:42:51;;;;;;;27.35;20.42;;;;;;;;;;5031406;28;20079;-61
2023/02/20 01:45:23;;;;;;;26.90;20.60;;;;;;;;;;5033537;28;20029;-61
2023/02/20 01:47:50;;;;;;;25.55;19.85;;;;;;;;;;5035575;28;20029;-60
2023/02/20 01:50:18;;;;;;;25.52;20.58;;;;;;;;;;5035509;28;20334;-59
2023/02/20 01:52:45;;;;;;;25.95;21.25;;;;;;;;;;5035284;28;20033;-61
2023/02/20 01:55:16;;;;;;;29.13;21.77;;;;;;;;;;5016914;28;20030;-60
2023/02/20 01:57:44;;;;;;;28.25;22.30;;;;;;;;;;5017552;28;20025;-58
2023/02/20 02:00:15;;;;;;;31.23;21.80;;;;;;;;;;5035329;28;20021;-59
2023/02/20 02:02:48;;;;;;;28.40;21.80;;;;;;;;;;5035047;28;20044;-58
2023/02/20 02:05:15;;;;;;;28.58;21.35;;;;;;;;;;5034316;28;20032;-59
2023/02/20 02:07:41;;;;;;;26.27;21.55;;;;;;;;;;5017481;28;20072;-59
2023/02/20 02:10:13;;;;;;;29.65;21.67;;;;;;;;;;5035040;28;20417;-60
2023/02/20 02:12:39;;;;;;;27.35;22.27;;;;;;;;;;5017301;28;20032;-58
2023/02/20 02:15:15;;;;;;;27.50;21.75;;;;;;;;;;5034335;28;20025;-60
2023/02/20 02:17:50;;;;;;;31.73;24.63;;;;;;;;;;5035017;28;20033;-60
2023/02/20 02:20:37;;;;;;;28.20;22.38;;;;;;;;;;5034889;28;20478;-57
2023/02/20 02:23:15;;;;;;;28.35;22.67;;;;;;;;;;5034417;28;20029;-57
2023/02/20 02:25:47;;;;;;;31.42;23.35;;;;;;;;;;5035530;28;20030;-60
2023/02/20 02:28:19;;;;;;;34.60;23.52;;;;;;;;;;5035549;28;20017;-56
2023/02/20 02:30:45;;;;;;;33.17;24.52;;;;;;;;;;5033473;28;20021;-60
2023/02/20 02:33:14;;;;;;;31.42;23.73;;;;;;;;;;5006907;28;20076;-59
2023/02/20 02:35:59;;;;;;;31.33;24.23;;;;;;;;;;5014074;28;20017;-59
2023/02/20 02:38:34;;;;;;;30.48;24.48;;;;;;;;;;5019464;28;20030;-60
2023/02/20 02:41:00;;;;;;;30.55;23.95;;;;;;;;;;5025256;28;20113;-57
2023/02/20 02:43:29;;;;;;;31.42;23.60;;;;;;;;;;5029223;28;20109;-61
2023/02/20 02:45:58;;;;;;;29.70;22.52;;;;;;;;;;5034532;28;20424;-61
2023/02/20 02:48:24;;;;;;;31.02;24.33;;;;;;;;;;5034315;28;20033;-61
2023/02/20 02:50:53;;;;;;;34.45;23.70;;;;;;;;;;5025959;28;20026;-61
2023/02/20 02:53:19;;;;;;;30.63;23.60;;;;;;;;;;5033547;28;20087;-60
2023/02/20 02:55:45;;;;;;;34.42;24.25;;;;;;;;;;5015566;28;20017;-60
2023/02/20 02:58:12;;;;;;;29.42;23.90;;;;;;;;;;5027759;28;20126;-56
2023/02/20 03:00:38;;;;;;;31.33;24.75;;;;;;;;;;5033352;28;20037;-58
2023/02/20 03:03:04;;;;;;;31.23;23.52;;;;;;;;;;5029035;28;20065;-56
2023/02/20 03:05:39;;;;;;;29.30;22.13;;;;;;;;;;5012244;28;20406;-58
2023/02/20 03:08:13;;;;;;;34.80;24.25;;;;;;;;;;5034611;28;20018;-60
2023/02/20 03:10:40;;;;;;;32.30;24.25;;;;;;;;;;5016484;28;20602;-60
2023/02/20 03:13:06;;;;;;;34.17;24.58;;;;;;;;;;5033298;28;20367;-60
2023/02/20 03:15:36;;;;;;;30.30;22.10;;;;;;;;;;5033848;28;20030;-60
2023/02/20 03:18:11;;;;;;;32.30;22.38;;;;;;;;;;5015993;28;20055;-60
2023/02/20 03:20:42;;;;;;;31.45;25.00;;;;;;;;;;5033978;28;20035;-60
2023/02/20 03:23:10;;;;;;;32.20;25.95;;;;;;;;;;5033077;28;20527;-61
2023/02/20 03:26:02;;;;;;;39.43;25.77;;;;;;;;;;5033769;28;20021;-61
2023/02/20 03:28:28;;;;;;;31.70;22.25;;;;;;;;;;5030120;28;20296;-61
2023/02/20 03:31:05;;;;;;;32.60;24.60;;;;;;;;;;5033669;28;20417;-61
2023/02/20 03:44:42;;;;;;;34.88;23.90;;;;;;;;;;5032590;28;20095;-61
2023/02/20 03:47:09;;;;;;;30.40;22.95;;;;;;;;;;5033366;28;20025;-60
2023/02/20 03:49:36;;;;;;;37.53;24.20;;;;;;;;;;5033352;28;20067;-60
2023/02/20 03:52:03;;;;;;;31.75;24.27;;;;;;;;;;5033118;28;20041;-60
2023/02/20 03:54:29;;;;;;;31.45;22.17;;;;;;;;;;5014750;28;20033;-60
2023/02/20 03:57:15;;;;;;;32.92;21.92;;;;;;;;;;5033217;28;20025;-60
2023/02/20 03:59:44;;;;;;;26.35;20.30;;;;;;;;;;5032978;28;20041;-58
2023/02/20 04:02:10;;;;;;;;;;;;;;;;;;5033250;28;20536;-59
2023/02/20 04:04:39;;;;;;;28.38;21.80;;;;;;;;;;5032094;28;19909;-59
2023/02/20 04:07:07;;;;;;;33.00;24.15;;;;;;;;;;5032529;28;20025;-61
2023/02/20 04:09:34;;;;;;;31.75;22.73;;;;;;;;;;5014912;28;20025;-60
2023/02/20 04:12:05;;;;;;;35.40;23.42;;;;;;;;;;5033128;28;20465;-60
2023/02/20 04:14:31;;;;;;;27.90;20.20;;;;;;;;;;5032238;28;20026;-60
2023/02/20 04:17:03;;;;;;;31.60;22.73;;;;;;;;;;5015089;28;20041;-61
2023/02/20 04:19:29;;;;;;;28.63;22.92;;;;;;;;;;5015044;28;20061;-59
2023/02/20 04:21:58;;;;;;;33.10;23.20;;;;;;;;;;5032605;28;20049;-59
2023/02/20 04:24:36;;;;;;;28.67;21.65;;;;;;;;;;5014053;28;20097;-59
2023/02/20 04:27:03;;;;;;;31.65;23.23;;;;;;;;;;5014807;28;20024;-59
2023/02/20 04:29:29;;;;;;;33.55;23.60;;;;;;;;;;5032377;28;20103;-59
2023/02/20 04:31:55;;;;;;;28.77;22.23;;;;;;;;;;5032203;28;20478;-61
2023/02/20 04:34:21;;;;;;;32.03;23.25;;;;;;;;;;5031793;28;20033;-61
2023/02/20 04:36:47;;;;;;;32.05;23.92;;;;;;;;;;5032340;28;20030;-61
2023/02/20 04:39:13;;;;;;;28.85;21.13;;;;;;;;;;5032233;28;20466;-61
2023/02/20 04:41:39;;;;;;;30.15;21.55;;;;;;;;;;5032168;28;20076;-59
2023/02/20 04:46:49;;;;;;;31.50;21.92;;;;;;;;;;5031833;28;20409;-61
2023/02/20 04:49:15;;;;;;;33.90;21.17;;;;;;;;;;5014141;28;20021;-60
2023/02/20 04:51:41;;;;;;;32.47;23.33;;;;;;;;;;5014196;28;20083;-60
2023/02/20 04:54:07;;;;;;;30.92;23.77;;;;;;;;;;5031208;28;20104;-60
2023/02/20 04:56:33;;;;;;;36.95;26.63;;;;;;;;;;5031803;28;20489;-59
2023/02/20 04:58:59;;;;;;;36.03;24.17;;;;;;;;;;5031828;28;20049;-60
2023/02/20 05:01:25;;;;;;;31.85;24.00;;;;;;;;;;5031703;28;20022;-60
2023/02/20 05:03:51;;;;;;;35.00;25.50;;;;;;;;;;5030997;28;20624;-60
2023/02/20 05:06:17;;;;;;;32.33;24.13;;;;;;;;;;5031528;28;20028;-60
2023/02/20 05:08:43;;;;;;;36.35;25.52;;;;;;;;;;5031787;28;20033;-60
2023/02/20 05:11:09;;;;;;;32.95;26.10;;;;;;;;;;5014031;28;20136;-61
2023/02/20 05:13:35;;;;;;;35.33;25.83;;;;;;;;;;5030940;28;20204;-63
2023/02/20 05:16:01;;;;;;;36.72;28.60;;;;;;;;;;5031660;28;20025;-61
2023/02/20 05:18:28;;;;;;;37.88;29.10;;;;;;;;;;5013733;28;20029;-61
2023/02/20 05:23:38;;;;;;;33.85;25.38;;;;;;;;;;5025477;28;20052;-60
2023/02/20 05:26:18;;;;;;;36.00;27.60;;;;;;;;;;5028180;28;20113;-60
2023/02/20 05:28:44;;;;;;;30.85;25.15;;;;;;;;;;5011524;28;20761;-61
2023/02/20 05:31:10;;;;;;;44.22;29.15;;;;;;;;;;5018924;28;20022;-61
2023/02/20 05:33:36;;;;;;;39.80;30.42;;;;;;;;;;5012748;28;20037;-59
2023/02/20 05:36:02;;;;;;;42.95;30.23;;;;;;;;;;5031340;28;20034;-61
2023/02/20 05:38:28;;;;;;;40.47;28.80;;;;;;;;;;5031237;28;20116;-61
2023/02/20 05:40:54;;;;;;;41.70;31.63;;;;;;;;;;5031188;28;20029;-61
2023/02/20 05:43:20;;;;;;;37.80;30.38;;;;;;;;;;5030081;28;20493;-60
2023/02/20 05:45:46;;;;;;;40.78;31.02;;;;;;;;;;5030782;28;20037;-60
2023/02/20 05:48:12;;;;;;;35.83;28.95;;;;;;;;;;5030738;28;20028;-61
2023/02/20 05:50:38;;;;;;;38.85;26.98;;;;;;;;;;5030534;28;20494;-60
2023/02/20 05:53:04;;;;;;;37.63;28.33;;;;;;;;;;5030217;28;20033;-63
2023/02/20 05:55:30;;;;;;;38.95;26.35;;;;;;;;;;5013208;28;20450;-60
2023/02/20 05:57:57;;;;;;;39.42;28.27;;;;;;;;;;5013886;28;20026;-60
2023/02/20 06:00:23;;;;;;;37.78;27.85;;;;;;;;;;5011216;28;20034;-61
2023/02/20 06:02:49;;;;;;;39.38;27.00;;;;;;;;;;5011134;28;20103;-61
2023/02/20 06:05:15;;;;;;;31.95;24.67;;;;;;;;;;5010130;28;20118;-61
2023/02/20 06:07:44;;;;;;;38.15;25.75;;;;;;;;;;5011119;28;20072;-60
2023/02/20 06:10:10;;;;;;;42.17;27.02;;;;;;;;;;5011196;28;20030;-60
2023/02/20 06:12:36;;;;;;;34.95;25.42;;;;;;;;;;5011125;28;20033;-61
2023/02/20 06:15:03;;;;;;;31.48;24.92;;;;;;;;;;5011072;28;20022;-58
2023/02/20 06:17:29;;;;;;;32.53;24.55;;;;;;;;;;5012085;28;20097;-60
2023/02/20 06:19:55;;;;;;;35.80;26.92;;;;;;;;;;5011812;28;20030;-57
2023/02/20 06:22:21;;;;;;;30.80;24.42;;;;;;;;;;5011187;28;20050;-58
2023/02/20 06:24:47;;;;;;;34.60;24.08;;;;;;;;;;5005780;28;20029;-60
2023/02/20 06:27:14;;;;;;;36.80;25.00;;;;;;;;;;5030698;28;20021;-61
2023/02/20 06:29:40;;;;;;;36.03;25.10;;;;;;;;;;5030928;28;20033;-60
2023/02/20 06:32:06;;;;;;;39.88;27.65;;;;;;;;;;5053493;23;20036;31
2023/02/20 06:34:32;;;;;;;37.63;28.23;;;;;;;;;;4991610;28;20124;-66
2023/02/20 06:37:02;;;;;;;41.95;29.20;;;;;;;;;;4995898;28;20022;-67
2023/02/20 06:39:28;;;;;;;37.95;25.85;;;;;;;;;;5013413;28;20364;-67
2023/02/20 06:41:55;;;;;;;35.97;26.40;;;;;;;;;;4995843;28;20022;-66
2023/02/20 06:44:21;;;;;;;37.88;27.75;;;;;;;;;;5012474;28;20478;-67
2023/02/20 06:46:47;;;;;;;36.53;27.42;;;;;;;;;;4995660;28;20546;-67
2023/02/20 06:49:13;;;;;;;35.08;26.92;;;;;;;;;;5013130;28;20649;-65
2023/02/20 06:51:40;;;;;;;38.03;29.23;;;;;;;;;;4995943;28;20026;-67
2023/02/20 06:54:06;;;;;;;43.55;27.83;;;;;;;;;;5012345;28;20034;-67
2023/02/20 06:56:33;;;;;;;36.25;27.25;;;;;;;;;;5013253;28;20025;-68
2023/02/20 06:59:00;;;;;;;36.55;26.00;;;;;;;;;;5012810;28;20069;-67
2023/02/20 07:01:27;;;;;;;39.08;29.25;;;;;;;;;;5013104;28;20021;-67
2023/02/20 07:03:54;;;;;;;41.47;28.70;;;;;;;;;;5012240;28;20117;-66
2023/02/20 07:06:20;;;;;;;36.17;25.17;;;;;;;;;;5012921;28;20025;-65
2023/02/20 07:08:46;;;;;;;37.30;26.80;;;;;;;;;;5013115;28;20427;-65
2023/02/20 07:11:12;;;;;;;38.22;26.33;;;;;;;;;;4995097;28;20125;-66
2023/02/20 07:13:38;;;;;;;35.05;27.48;;;;;;;;;;4994330;28;20054;-64
2023/02/20 07:16:04;;;;;;;35.38;27.23;;;;;;;;;;5012877;28;20374;-65
2023/02/20 07:18:30;;;;;;;39.85;28.17;;;;;;;;;;5012837;28;20029;-66
2023/02/20 07:20:56;;;;;;;39.75;29.42;;;;;;;;;;4995436;28;20743;-66
2023/02/20 07:23:22;;;;;;;37.63;27.05;;;;;;;;;;5011891;28;20045;-64
2023/02/20 07:25:49;;;;;;;37.42;28.10;;;;;;;;;;5024498;28;20025;-65
2023/02/20 07:28:18;;;;;;;34.22;26.13;;;;;;;;;;5032335;28;20100;-66
2023/02/20 07:30:46;;;;;;;37.03;27.17;;;;;;;;;;5032339;28;20064;-67
2023/02/20 07:33:12;;;;;;;40.00;25.77;;;;;;;;;;5031240;28;20026;-67
2023/02/20 07:35:38;;;;;;;33.90;25.65;;;;;;;;;;5013958;28;20053;-66
2023/02/20 07:38:04;;;;;;;38.42;26.92;;;;;;;;;;5014435;28;20148;-67
2023/02/20 07:40:30;;;;;;;27.33;22.88;;;;;;;;;;5032551;28;20359;-67
2023/02/20 07:42:56;;;;;;;37.90;27.83;;;;;;;;;;5031362;28;20037;-65
2023/02/20 07:45:23;;;;;;;36.08;24.48;;;;;;;;;;5031680;28;20028;-67
2023/02/20 07:47:49;;;;;;;35.22;26.13;;;;;;;;;;5032062;28;20421;-67
2023/02/20 07:50:16;;;;;;;38.42;27.60;;;;;;;;;;5032079;28;20032;-68
2023/02/20 07:52:42;;;;;;;40.63;27.73;;;;;;;;;;5031886;28;20484;-67
2023/02/20 07:55:08;;;;;;;35.95;27.27;;;;;;;;;;5031285;28;20413;-66
2023/02/20 07:57:35;;;;;;;39.72;27.75;;;;;;;;;;5031884;28;20021;-67
2023/02/20 08:00:01;;;;;;;39.13;26.45;;;;;;;;;;5032046;28;20042;-67
2023/02/20 08:02:27;;;;;;;35.90;24.90;;;;;;;;;;5031915;28;20029;-66
2023/02/20 08:04:53;;;;;;;39.20;25.88;;;;;;;;;;5030695;28;20419;-66
2023/02/20 08:07:20;;;;;;;33.28;24.98;;;;;;;;;;5014020;28;20025;-66
2023/02/20 08:09:46;;;;;;;39.08;27.35;;;;;;;;;;5031584;28;20031;-66
2023/02/20 08:12:13;;;;;;;32.72;23.40;;;;;;;;;;5013548;28;20030;-66
2023/02/20 08:14:39;;;;;;;37.85;28.45;;;;;;;;;;5030732;28;20027;-67
2023/02/20 08:17:05;;;;;;;41.17;26.58;;;;;;;;;;5031436;28;20053;-66
2023/02/20 08:19:31;;;;;;;42.30;27.52;;;;;;;;;;5031343;28;20529;-66
2023/02/20 08:21:57;;;;;;;34.90;25.95;;;;;;;;;;5031414;28;20033;-65
2023/02/20 08:24:23;;;;;;;40.85;27.13;;;;;;;;;;5030281;28;20183;-66
2023/02/20 08:26:49;;;;;;;38.42;26.38;;;;;;;;;;4991939;28;20142;-68
2023/02/20 08:29:16;;;;;;;42.33;29.45;;;;;;;;;;4992189;28;20042;-67
2023/02/20 08:31:42;;;;;;;31.75;24.02;;;;;;;;;;4990537;28;20033;-65
2023/02/20 08:34:08;;;;;;;36.45;26.33;;;;;;;;;;5000934;28;20032;-65
2023/02/20 08:36:34;;;;;;;39.75;25.50;;;;;;;;;;4993492;28;20030;-65
2023/02/20 08:39:02;;;;;;;43.80;27.65;;;;;;;;;;5003311;28;20167;-67
2023/02/20 08:41:28;;;;;;;30.30;22.53;;;;;;;;;;4993602;28;20508;-61
2023/02/20 08:43:54;;;;;;;41.17;27.17;;;;;;;;;;4992734;28;20281;-62
2023/02/20 08:46:20;;;;;;;35.63;24.05;;;;;;;;;;5011296;28;20672;-63
2023/02/20 08:48:46;;;;;;;33.70;23.85;;;;;;;;;;5011125;28;20390;-64
2023/02/20 08:51:12;;;;;;;34.42;23.30;;;;;;;;;;5011271;28;20029;-60
2023/02/20 08:53:39;;;;;;;36.75;24.17;;;;;;;;;;5009298;28;20390;-68
2023/02/20 08:56:06;;;;;;;36.38;24.55;;;;;;;;;;5011167;28;20104;-64
2023/02/20 08:58:32;;;;;;;36.13;25.83;;;;;;;;;;4993231;28;20069;-64
2023/02/20 09:00:58;;;;;;;36.55;24.67;;;;;;;;;;5011187;28;20457;-67
2023/02/20 09:03:25;;;;;;;35.08;26.92;;;;;;;;;;4992446;28;20505;-69
2023/02/20 09:05:52;;;;;;;35.53;22.85;;;;;;;;;;5011130;28;20018;-65
2023/02/20 09:08:18;;;;;;;33.45;25.98;;;;;;;;;;5005576;28;20133;-63
2023/02/20 09:10:44;;;;;;;35.72;25.10;;;;;;;;;;5008360;28;20033;-63
2023/02/20 09:13:10;;;;;;;44.33;26.17;;;;;;;;;;5009451;28;20025;-62
2023/02/20 09:15:40;;;;;;;39.65;24.75;;;;;;;;;;5010431;28;20065;-63
2023/02/20 09:18:11;;;;;;;37.95;23.73;;;;;;;;;;5010807;28;20368;-65
2023/02/20 09:20:37;;;;;;;32.25;24.80;;;;;;;;;;5010577;28;20072;-61
2023/02/20 09:23:04;;;;;;;35.60;23.67;;;;;;;;;;4991677;28;20029;-61
2023/02/20 09:25:30;;;;;;;38.38;25.67;;;;;;;;;;5009949;28;20033;-63
2023/02/20 09:27:56;;;;;;;35.72;24.38;;;;;;;;;;5009755;28;20026;-63
2023/02/20 09:30:22;;;;;;;40.22;24.88;;;;;;;;;;5009361;28;20029;-63
2023/02/20 09:32:49;;;;;;;33.00;23.25;;;;;;;;;;5009153;28;20475;-61
2023/02/20 09:35:19;;;;;;;38.05;25.08;;;;;;;;;;5009936;28;20113;-62
2023/02/20 09:37:46;;;;;;;37.33;24.83;;;;;;;;;;5010443;28;20087;-63
2023/02/20 09:40:13;;;;;;;37.35;27.17;;;;;;;;;;5010423;28;20107;-62
2023/02/20 09:42:39;;;;;;;37.10;26.00;;;;;;;;;;5010396;28;20053;-64
2023/02/20 09:45:18;;;;;;;41.28;26.02;;;;;;;;;;5009711;28;20037;-64
2023/02/20 09:47:44;;;;;;;39.33;23.70;;;;;;;;;;5010588;28;20597;-61
2023/02/20 09:50:15;;;;;;;37.22;25.10;;;;;;;;;;5010260;28;20062;-62
2023/02/20 09:52:43;;;;;;;36.65;23.85;;;;;;;;;;5010435;28;20514;-61
2023/02/20 09:55:09;;;;;;;;;;;;;;;;;;5010111;28;20029;-64
2023/02/20 09:57:36;;;;;;;37.10;25.25;;;;;;;;;;5010304;28;19906;-62
2023/02/20 10:00:12;;;;;;;33.40;22.48;;;;;;;;;;5010397;28;20030;-63
2023/02/20 10:02:51;;;;;;;33.85;23.33;;;;;;;;;;5010109;28;20026;-63
2023/02/20 10:05:18;;;;;;;31.48;22.23;;;;;;;;;;5010323;28;20132;-63
2023/02/20 10:07:44;;;;;;;37.17;24.40;;;;;;;;;;5014577;28;20470;-63
2023/02/20 10:10:16;;;;;;;38.55;25.55;;;;;;;;;;5014799;28;20537;-61
2023/02/20 10:12:55;;;;;;;37.70;24.67;;;;;;;;;;5014716;28;20061;-62
2023/02/20 10:15:33;;;;;;;41.42;25.02;;;;;;;;;;5014204;28;20036;-62
2023/02/20 10:18:08;;;;;;;43.25;23.17;;;;;;;;;;4996545;28;20034;-63
2023/02/20 10:20:59;;;;;;;36.67;24.48;;;;;;;;;;5013870;28;20033;-62
2023/02/20 10:23:43;;;;;;;40.40;25.50;;;;;;;;;;5003479;28;20065;-63
2023/02/20 10:26:20;;;;;;;38.90;25.02;;;;;;;;;;5013956;28;20048;-64
2023/02/20 10:28:48;;;;;;;29.48;20.65;;;;;;;;;;5014168;28;20022;-62
2023/02/20 10:31:28;;;;;;;32.28;22.65;;;;;;;;;;5012927;28;20352;-62
2023/02/20 10:33:59;;;;;;;39.90;22.75;;;;;;;;;;4995389;28;20504;-63
2023/02/20 10:36:28;;;;;;;31.55;21.73;;;;;;;;;;4996319;28;20382;-63
2023/02/20 10:39:01;;;;;;;29.17;19.45;;;;;;;;;;5013943;28;20022;-63
2023/02/20 10:41:39;;;;;;;30.40;22.33;;;;;;;;;;4995928;28;20066;-63
2023/02/20 10:44:06;;;;;;;31.70;23.42;;;;;;;;;;4995039;28;20033;-63
2023/02/20 10:46:32;;;;;;;33.33;21.45;;;;;;;;;;5013307;28;20444;-63
2023/02/20 10:49:01;;;;;;;34.97;22.38;;;;;;;;;;5013401;28;20109;-63
2023/02/20 10:51:27;;;;;;;33.10;23.38;;;;;;;;;;5006239;28;20018;-62
2023/02/20 10:54:02;;;;;;;29.80;22.10;;;;;;;;;;5009868;28;20030;-62
2023/02/20 10:57:07;;;;;;;30.13;22.85;;;;;;;;;;5012514;28;20066;-62
2023/02/20 10:59:33;;;;;;;33.33;24.38;;;;;;;;;;4933253;29;20047;-63
2023/02/20 11:02:01;;;;;;;34.35;22.52;;;;;;;;;;4931454;29;20051;-62
2023/02/20 11:04:30;;;;;;;35.20;21.52;;;;;;;;;;4970462;28;20426;-63
2023/02/20 11:07:17;;;;;;;29.38;20.80;;;;;;;;;;5012793;28;20491;-64
2023/02/20 11:09:43;;;;;;;35.75;21.08;;;;;;;;;;5012724;28;20159;-64
2023/02/20 11:12:20;;;;;;;29.05;21.05;;;;;;;;;;5012467;28;20029;-62
2023/02/20 11:14:48;;;;;;;32.30;22.60;;;;;;;;;;5011935;28;20022;-62
2023/02/20 11:17:20;;;;;;;33.08;21.42;;;;;;;;;;5011884;28;20296;-62
2023/02/20 11:19:52;;;;;;;29.35;20.73;;;;;;;;;;5012625;28;20031;-62
2023/02/20 11:22:37;;;;;;;28.35;20.98;;;;;;;;;;5012891;28;20080;-62
2023/02/20 11:25:27;;;;;;;32.17;22.45;;;;;;;;;;5016746;28;20026;-62
2023/02/20 11:27:57;;;;;;;33.63;22.08;;;;;;;;;;4997409;28;20042;-62
2023/02/20 11:30:26;;;;;;;33.97;21.10;;;;;;;;;;4994829;28;20394;-61
2023/02/20 11:33:00;;;;;;;29.65;20.67;;;;;;;;;;5011858;28;20118;-60
2023/02/20 11:35:28;;;;;;;31.00;23.02;;;;;;;;;;5011776;28;20022;-62
2023/02/20 11:38:13;;;;;;;33.88;22.40;;;;;;;;;;5012321;28;20025;-64
2023/02/20 11:40:39;;;;;;;32.38;20.67;;;;;;;;;;5011870;28;20418;-65
2023/02/20 11:43:18;;;;;;;34.78;22.77;;;;;;;;;;5011324;28;20402;-66
2023/02/20 11:45:44;;;;;;;34.10;23.63;;;;;;;;;;5011944;28;20497;-65
2023/02/20 11:48:15;;;;;;;32.83;21.20;;;;;;;;;;5012371;28;20018;-65
2023/02/20 11:50:46;;;;;;;27.95;21.33;;;;;;;;;;5008836;28;20479;-64
2023/02/20 11:53:20;;;;;;;29.58;21.35;;;;;;;;;;5004241;28;20084;-63
2023/02/20 11:55:47;;;;;;;32.92;21.20;;;;;;;;;;4994654;28;20427;-65
2023/02/20 11:58:26;;;;;;;34.67;21.15;;;;;;;;;;5009200;28;20482;-63
2023/02/20 12:00:53;;;;;;;28.20;21.88;;;;;;;;;;5004280;28;20149;-63
2023/02/20 12:03:27;;;;;;;31.52;20.77;;;;;;;;;;4979799;28;20026;-63
2023/02/20 12:05:54;;;;;;;29.55;21.52;;;;;;;;;;5011565;28;20553;-64
2023/02/20 12:08:23;;;;;;;32.65;21.67;;;;;;;;;;5004122;28;20026;-65
2023/02/20 12:10:52;;;;;;;37.58;22.45;;;;;;;;;;5011582;28;20375;-65
2023/02/20 12:13:18;;;;;;;32.58;22.52;;;;;;;;;;5010414;28;20054;-64
2023/02/20 12:15:47;;;;;;;31.30;22.38;;;;;;;;;;5011658;28;20509;-64
2023/02/20 12:18:13;;;;;;;34.58;21.75;;;;;;;;;;5011622;28;20030;-63
2023/02/20 12:20:44;;;;;;;30.35;20.15;;;;;;;;;;4993780;28;20441;-65
2023/02/20 12:23:20;;;;;;;30.65;21.00;;;;;;;;;;4992855;28;20037;-65
2023/02/20 12:25:58;;;;;;;34.70;24.10;;;;;;;;;;4993845;28;20459;-65
2023/02/20 12:28:33;;;;;;;35.05;21.65;;;;;;;;;;5004260;28;20429;-64
2023/02/20 12:31:02;;;;;;;29.40;22.45;;;;;;;;;;5008784;28;20036;-65
2023/02/20 12:33:28;;;;;;;30.08;22.42;;;;;;;;;;5031405;23;20107;-61
2023/02/20 12:36:10;;;;;;;30.65;21.20;;;;;;;;;;5014050;28;20026;-62
2023/02/20 12:38:36;;;;;;;36.47;24.95;;;;;;;;;;5013872;28;20489;-61
2023/02/20 12:41:37;;;;;;;34.80;24.00;;;;;;;;;;5014011;28;20032;-63
2023/02/20 12:44:03;;;;;;;32.10;22.48;;;;;;;;;;4969313;28;20118;-61
2023/02/20 12:46:56;;;;;;;29.40;21.45;;;;;;;;;;5001105;28;20255;-61
2023/02/20 12:49:40;;;;;;;32.50;21.20;;;;;;;;;;5028576;28;20044;-61
2023/02/20 12:52:18;;;;;;;39.90;24.55;;;;;;;;;;5013551;28;20474;-62
2023/02/20 12:54:44;;;;;;;29.73;22.02;;;;;;;;;;5012692;28;20032;-62
2023/02/20 12:57:29;;;;;;;32.22;22.70;;;;;;;;;;5031412;28;20029;-61
2023/02/20 12:59:55;;;;;;;35.40;23.23;;;;;;;;;;5031299;28;20505;-62
2023/02/20 13:02:30;;;;;;;33.35;25.02;;;;;;;;;;5013637;28;20033;-61
2023/02/20 13:04:58;;;;;;;33.13;22.95;;;;;;;;;;5012090;28;20057;-59
2023/02/20 13:07:45;;;;;;;31.20;23.55;;;;;;;;;;5030877;28;20440;-62
2023/02/20 13:10:17;;;;;;;33.50;23.08;;;;;;;;;;5013369;28;20017;-63
2023/02/20 13:12:43;;;;;;;36.20;22.50;;;;;;;;;;5030974;28;20056;-62
2023/02/20 13:15:21;;;;;;;33.67;22.42;;;;;;;;;;5030620;28;20037;-60
2023/02/20 13:17:56;;;;;;;34.15;23.42;;;;;;;;;;5031026;28;20030;-65
2023/02/20 13:20:27;;;;;;;32.15;22.40;;;;;;;;;;5030698;28;20060;-62
2023/02/20 13:23:26;;;;;;;33.95;24.83;;;;;;;;;;5031283;28;20030;-62
2023/02/20 13:25:54;;;;;;;32.47;24.17;;;;;;;;;;5013353;28;20168;-62
2023/02/20 13:28:41;;;;;;;32.08;22.90;;;;;;;;;;5029356;28;20025;-62
2023/02/20 13:31:14;;;;;;;33.05;24.27;;;;;;;;;;5030467;28;20029;-63
2023/02/20 13:33:41;;;;;;;27.42;20.60;;;;;;;;;;5029028;28;20033;-63
2023/02/20 13:36:26;;;;;;;31.45;22.30;;;;;;;;;;5030349;28;20017;-64
2023/02/20 13:39:10;;;;;;;30.67;22.38;;;;;;;;;;5012564;28;20037;-63
2023/02/20 13:41:55;;;;;;;33.63;23.90;;;;;;;;;;5019067;28;20390;-63
2023/02/20 13:44:27;;;;;;;34.05;23.00;;;;;;;;;;5035430;28;20044;-63
2023/02/20 13:47:01;;;;;;;38.42;25.92;;;;;;;;;;5037155;28;20485;-61
2023/02/20 13:49:48;;;;;;;34.13;25.63;;;;;;;;;;5037362;28;20032;-63
2023/02/20 13:52:29;;;;;;;30.27;21.80;;;;;;;;;;5037498;28;20660;-63
2023/02/20 13:54:57;;;;;;;31.23;24.58;;;;;;;;;;5036894;28;20371;-62
2023/02/20 13:57:26;;;;;;;33.65;25.00;;;;;;;;;;5037811;28;20044;-64
2023/02/20 13:59:54;;;;;;;33.38;24.17;;;;;;;;;;5037585;28;20044;-63
2023/02/20 14:02:23;;;;;;;32.70;25.02;;;;;;;;;;5038709;28;20128;-59
2023/02/20 14:04:53;;;;;;;35.53;27.88;;;;;;;;;;5036673;28;20037;-64
2023/02/20 14:07:30;;;;;;;36.10;27.08;;;;;;;;;;5019572;28;20489;-62
2023/02/20 14:10:04;;;;;;;35.47;25.40;;;;;;;;;;5037885;28;20541;-63
2023/02/20 14:12:30;;;;;;;42.05;27.15;;;;;;;;;;5027422;28;20033;-63
2023/02/20 14:14:56;;;;;;;31.48;24.23;;;;;;;;;;5017470;28;20060;-62
2023/02/20 14:17:23;;;;;;;33.72;24.38;;;;;;;;;;5028828;28;20108;-64
2023/02/20 14:20:02;;;;;;;42.45;26.58;;;;;;;;;;5032504;28;20465;-64
2023/02/20 14:22:31;;;;;;;38.67;27.83;;;;;;;;;;5032507;28;20033;-62
2023/02/20 14:25:19;;;;;;;41.10;28.48;;;;;;;;;;5031851;28;20105;-60
2023/02/20 14:27:45;;;;;;;46.75;27.05;;;;;;;;;;5036396;28;20481;-63
2023/02/20 14:30:13;;;;;;;37.50;26.30;;;;;;;;;;5025686;28;20036;-60
2023/02/20 14:32:42;;;;;;;37.15;25.35;;;;;;;;;;5037039;28;20100;-61
2023/02/20 14:35:14;;;;;;;42.35;27.17;;;;;;;;;;5028219;28;20041;-64
2023/02/20 14:37:48;;;;;;;40.78;26.75;;;;;;;;;;5036487;28;20092;-63
2023/02/20 14:40:14;;;;;;;37.63;26.42;;;;;;;;;;5030445;28;20045;-61
2023/02/20 14:42:44;;;;;;;32.38;24.77;;;;;;;;;;5034105;28;20088;-63
2023/02/20 14:45:25;;;;;;;37.33;27.45;;;;;;;;;;5033964;28;20052;-62
2023/02/20 14:47:52;;;;;;;38.85;28.00;;;;;;;;;;5035839;28;20048;-61